createdAt,value
2023-05-10T00:00:44.121Z,7.05
2023-05-10T00:03:11.242Z,7.95
2023-05-10T00:05:37.829Z,8.70
2023-05-10T00:08:04.342Z,8.18
2023-05-10T00:10:30.882Z,7.93
2023-05-10T00:12:57.432Z,7.90
2023-05-10T00:15:23.870Z,9.30
2023-05-10T00:17:51.844Z,7.82
2023-05-10T00:20:18.558Z,7.85
2023-05-10T00:22:45.304Z,9.45
2023-05-10T00:25:11.793Z,9.02
2023-05-10T00:27:38.705Z,8.25
2023-05-10T00:30:05.794Z,10.70
2023-05-10T00:32:32.432Z,11.30
2023-05-10T00:35:00.139Z,9.88
2023-05-10T00:37:28.656Z,9.73
2023-05-10T00:39:55.351Z,11.52
2023-05-10T00:42:22.177Z,12.82
2023-05-10T00:44:49.012Z,12.50
2023-05-10T00:47:16.892Z,13.48
2023-05-10T00:49:44.200Z,13.20
2023-05-10T00:52:13.675Z,13.80
2023-05-10T00:54:40.294Z,13.07
2023-05-10T00:57:06.841Z,13.48
2023-05-10T00:59:33.496Z,12.52
2023-05-10T01:02:00.005Z,14.98
2023-05-10T01:04:26.888Z,16.55
2023-05-10T01:06:54.689Z,14.27
2023-05-10T01:09:22.903Z,15.27
2023-05-10T01:11:50.302Z,14.15
2023-05-10T01:14:20.738Z,13.80
2023-05-10T01:16:49.472Z,13.38
2023-05-10T01:19:26.993Z,13.60
2023-05-10T01:22:19.778Z,13.40
2023-05-10T01:25:02.795Z,14.00
2023-05-10T01:28:04.521Z,13.13
2023-05-10T01:30:58.985Z,12.88
2023-05-10T01:33:48.682Z,11.52
2023-05-10T01:36:36.635Z,12.60
2023-05-10T01:39:17.006Z,12.02
2023-05-10T01:41:53.941Z,13.02
2023-05-10T01:44:40.990Z,13.18
2023-05-10T01:47:18.460Z,15.07
2023-05-10T01:49:51.270Z,12.80
2023-05-10T01:52:20.773Z,13.18
2023-05-10T01:55:12.446Z,12.55
2023-05-10T01:57:41.580Z,13.65
2023-05-10T02:00:09.694Z,13.15
2023-05-10T02:02:47.339Z,13.25
2023-05-10T02:05:16.221Z,13.23
2023-05-10T02:07:43.542Z,12.90
2023-05-10T02:10:11.604Z,14.73
2023-05-10T02:12:42.594Z,13.30
2023-05-10T02:15:11.385Z,13.27
2023-05-10T02:17:40.057Z,14.35
2023-05-10T02:20:09.507Z,13.45
2023-05-10T02:22:37.693Z,14.25
2023-05-10T02:25:05.242Z,13.52
2023-05-10T02:27:32.409Z,14.60
2023-05-10T02:29:59.517Z,13.45
2023-05-10T02:32:28.701Z,13.43
2023-05-10T02:34:57.993Z,14.00
2023-05-10T02:37:26.309Z,13.77
2023-05-10T02:39:55.944Z,14.82
2023-05-10T02:42:30.131Z,15.75
2023-05-10T02:45:02.273Z,13.73
2023-05-10T02:47:30.029Z,14.30
2023-05-10T02:49:56.603Z,13.75
2023-05-10T02:52:27.364Z,13.38
2023-05-10T02:54:57.897Z,13.20
2023-05-10T02:57:32.724Z,13.85
2023-05-10T03:00:01.137Z,14.55
2023-05-10T03:02:28.000Z,14.23
2023-05-10T03:04:54.512Z,14.93
2023-05-10T03:07:22.323Z,14.63
2023-05-10T03:09:51.604Z,16.48
2023-05-10T03:12:33.563Z,16.65
2023-05-10T03:15:32.245Z,15.77
2023-05-10T03:18:10.416Z,14.85
2023-05-10T03:20:42.320Z,16.40
2023-05-10T03:23:14.628Z,15.68
2023-05-10T03:25:42.125Z,14.52
2023-05-10T03:28:09.684Z,16.20
2023-05-10T03:30:36.704Z,15.75
2023-05-10T03:33:10.114Z,15.98
2023-05-10T03:35:40.345Z,16.15
2023-05-10T03:38:06.954Z,15.45
2023-05-10T03:40:33.514Z,15.88
2023-05-10T03:43:00.479Z,15.07
2023-05-10T03:45:27.711Z,14.95
2023-05-10T03:47:54.945Z,16.75
2023-05-10T03:50:21.995Z,16.05
2023-05-10T03:52:48.765Z,15.40
2023-05-10T03:55:15.269Z,16.30
2023-05-10T03:57:41.717Z,15.57
2023-05-10T04:00:09.166Z,16.48
2023-05-10T04:02:41.848Z,15.07
2023-05-10T04:05:11.857Z,16.25
2023-05-10T04:07:38.413Z,14.25
2023-05-10T04:10:05.326Z,14.45
2023-05-10T04:12:31.865Z,14.55
2023-05-10T04:14:58.504Z,16.25
2023-05-10T04:17:25.000Z,14.02
2023-05-10T04:19:53.987Z,14.15
2023-05-10T04:22:20.441Z,14.48
2023-05-10T04:24:46.937Z,13.45
2023-05-10T04:27:13.699Z,14.10
2023-05-10T04:29:40.244Z,13.32
2023-05-10T04:32:06.724Z,13.65
2023-05-10T04:34:35.033Z,13.73
2023-05-10T04:37:01.601Z,13.73
2023-05-10T04:39:28.106Z,14.27
2023-05-10T04:41:54.564Z,14.45
2023-05-10T04:44:21.159Z,13.73
2023-05-10T04:46:47.614Z,13.50
2023-05-10T04:49:15.259Z,14.50
2023-05-10T04:51:41.712Z,13.32
2023-05-10T04:54:08.153Z,15.15
2023-05-10T04:56:34.822Z,15.73
2023-05-10T04:59:01.374Z,14.95
2023-05-10T05:01:28.080Z,13.75
2023-05-10T05:03:54.931Z,15.10
2023-05-10T05:06:25.854Z,15.07
2023-05-10T05:08:52.463Z,14.77
2023-05-10T05:11:18.949Z,15.13
2023-05-10T05:13:45.363Z,14.43
2023-05-10T05:16:14.564Z,15.55
2023-05-10T05:18:41.069Z,15.35
2023-05-10T05:21:18.035Z,13.52
2023-05-10T05:23:44.917Z,16.52
2023-05-10T05:26:11.643Z,15.52
2023-05-10T05:28:38.761Z,15.57
2023-05-10T05:31:06.597Z,15.57
2023-05-10T05:33:33.207Z,15.45
2023-05-10T05:36:05.460Z,16.00
2023-05-10T05:38:32.390Z,16.20
2023-05-10T05:40:58.971Z,16.05
2023-05-10T05:43:25.710Z,19.08
2023-05-10T05:45:54.836Z,16.65
2023-05-10T05:48:22.026Z,14.90
2023-05-10T05:50:48.481Z,16.55
2023-05-10T05:53:15.093Z,15.32
2023-05-10T05:55:41.597Z,15.80
2023-05-10T05:58:09.083Z,15.43
2023-05-10T06:00:35.745Z,15.35
2023-05-10T06:03:02.341Z,14.35
2023-05-10T06:05:30.976Z,13.45
2023-05-10T06:07:57.422Z,13.38
2023-05-10T06:10:23.977Z,13.93
2023-05-10T06:12:51.812Z,14.45
2023-05-10T06:15:18.488Z,13.40
2023-05-10T06:17:45.276Z,12.80
2023-05-10T06:20:12.576Z,13.35
2023-05-10T06:22:39.368Z,14.25
2023-05-10T06:25:06.287Z,13.75
2023-05-10T06:27:32.746Z,13.18
2023-05-10T06:30:11.923Z,15.35
2023-05-10T06:32:39.751Z,12.38
2023-05-10T06:35:06.863Z,12.80
2023-05-10T06:37:33.401Z,11.75
2023-05-10T06:39:59.906Z,11.82
2023-05-10T06:42:26.528Z,11.15
2023-05-10T06:44:52.996Z,11.45
2023-05-10T06:47:19.770Z,10.40
2023-05-10T06:49:46.255Z,9.68
2023-05-10T06:52:13.154Z,9.38
2023-05-10T06:54:39.642Z,10.15
2023-05-10T06:57:16.065Z,9.90
2023-05-10T06:59:50.487Z,7.85
2023-05-10T07:02:17.473Z,8.48
2023-05-10T07:04:44.230Z,6.82
2023-05-10T07:07:10.755Z,7.05
2023-05-10T07:09:37.312Z,6.78
2023-05-10T07:12:03.971Z,6.28
2023-05-10T07:14:30.371Z,5.90
2023-05-10T07:16:56.877Z,6.40
2023-05-10T07:19:23.377Z,4.97
2023-05-10T07:21:49.886Z,4.80
2023-05-10T07:24:16.336Z,5.63
2023-05-10T07:26:42.842Z,4.85
2023-05-10T07:29:09.389Z,5.40
2023-05-10T07:31:35.975Z,4.88
2023-05-10T07:34:02.457Z,5.00
2023-05-10T07:36:28.936Z,4.88
2023-05-10T07:38:58.519Z,4.57
2023-05-10T07:41:24.975Z,5.25
2023-05-10T07:43:51.431Z,4.43
2023-05-10T07:46:17.998Z,5.10
2023-05-10T07:48:44.536Z,5.35
2023-05-10T07:51:11.717Z,5.55
2023-05-10T07:53:38.810Z,5.97
2023-05-10T07:56:27.519Z,4.47
2023-05-10T08:01:21.783Z,4.03
2023-05-10T08:03:48.613Z,4.40
2023-05-10T08:06:16.451Z,4.25
2023-05-10T08:08:43.153Z,4.90
2023-05-10T08:11:09.615Z,4.65
2023-05-10T08:13:36.011Z,4.63
2023-05-10T08:16:02.763Z,4.45
2023-05-10T08:18:29.324Z,4.30
2023-05-10T08:20:56.166Z,5.47
2023-05-10T08:23:22.660Z,4.32
2023-05-10T08:25:49.446Z,4.47
2023-05-10T08:28:16.100Z,5.03
2023-05-10T08:30:42.532Z,4.53
2023-05-10T08:33:08.961Z,6.78
2023-05-10T08:35:35.852Z,4.85
2023-05-10T08:38:02.507Z,4.95
2023-05-10T08:40:29.163Z,5.00
2023-05-10T08:43:10.489Z,5.38
2023-05-10T08:45:41.839Z,4.68
2023-05-10T08:48:10.440Z,5.78
2023-05-10T08:50:38.321Z,5.07
2023-05-10T08:53:11.564Z,5.40
2023-05-10T08:55:39.660Z,5.80
2023-05-10T08:58:06.866Z,5.10
2023-05-10T09:00:34.229Z,5.00
2023-05-10T09:03:01.821Z,5.50
2023-05-10T09:05:28.578Z,5.40
2023-05-10T09:07:55.059Z,5.60
2023-05-10T09:10:21.869Z,5.53
2023-05-10T09:12:49.677Z,4.50
2023-05-10T09:15:16.946Z,4.03
2023-05-10T09:17:45.304Z,3.05
2023-05-10T09:20:11.928Z,3.40
2023-05-10T09:22:39.308Z,3.65
2023-05-10T09:25:07.163Z,4.00
2023-05-10T09:27:34.708Z,3.08
2023-05-10T09:30:01.680Z,3.60
2023-05-10T09:32:48.652Z,2.97
2023-05-10T09:35:17.309Z,3.03
2023-05-10T09:37:47.154Z,3.13
2023-05-10T09:40:16.310Z,2.78
2023-05-10T09:43:07.030Z,2.17
2023-05-10T09:45:37.166Z,1.38
2023-05-10T09:48:05.718Z,1.73
2023-05-10T09:50:32.316Z,1.45
2023-05-10T09:53:01.365Z,1.35
2023-05-10T09:55:39.753Z,2.17
2023-05-10T09:58:10.928Z,2.15
2023-05-10T10:00:45.031Z,2.05
2023-05-10T10:03:17.293Z,1.98
2023-05-10T10:05:44.993Z,2.00
2023-05-10T10:08:12.975Z,1.80
2023-05-10T10:10:42.807Z,1.20
2023-05-10T10:16:04.896Z,1.58
2023-05-10T10:18:31.955Z,2.15
2023-05-10T10:20:59.499Z,1.85
2023-05-10T10:23:26.404Z,1.70
2023-05-10T10:25:56.252Z,1.90
2023-05-10T10:28:40.461Z,2.70
2023-05-10T10:31:29.440Z,2.25
2023-05-10T10:34:08.422Z,1.88
2023-05-10T10:36:55.912Z,2.53
2023-05-10T10:39:22.524Z,2.72
2023-05-10T10:41:54.238Z,2.95
2023-05-10T10:44:23.879Z,2.30
2023-05-10T10:47:35.196Z,1.92
2023-05-10T10:50:01.921Z,2.47
2023-05-10T10:52:36.345Z,2.17
2023-05-10T10:55:25.839Z,1.70
2023-05-10T10:58:05.070Z,1.88
2023-05-10T11:00:38.132Z,1.73
2023-05-10T11:03:09.084Z,2.05
2023-05-10T11:05:36.651Z,2.28
2023-05-10T11:08:28.857Z,2.38
2023-05-10T11:11:01.325Z,1.95
2023-05-10T11:13:30.953Z,1.48
2023-05-10T11:15:58.442Z,1.60
2023-05-10T11:18:30.448Z,2.25
2023-05-10T11:21:03.655Z,2.17
2023-05-10T11:23:48.937Z,1.80
2023-05-10T11:26:16.983Z,1.60
2023-05-10T11:28:48.171Z,1.75
2023-05-10T11:31:16.076Z,1.35
2023-05-10T11:33:53.470Z,1.38
2023-05-10T11:36:22.873Z,1.70
2023-05-10T11:38:49.657Z,1.70
2023-05-10T11:41:18.471Z,1.60
2023-05-10T11:43:47.703Z,1.38
2023-05-10T11:46:14.781Z,1.45
2023-05-10T11:48:42.433Z,1.80
2023-05-10T11:51:10.397Z,1.70
2023-05-10T11:53:36.922Z,1.55
2023-05-10T11:56:07.696Z,0.95
2023-05-10T11:58:35.162Z,1.05
2023-05-10T12:01:01.859Z,0.77
2023-05-10T12:03:29.188Z,1.27
2023-05-10T12:05:57.157Z,0.60
2023-05-10T12:08:26.073Z,1.10
2023-05-10T12:11:04.256Z,1.05
2023-05-10T12:13:30.716Z,1.45
2023-05-10T12:16:01.521Z,1.00
2023-05-10T12:18:27.976Z,0.90
2023-05-10T12:20:54.824Z,1.15
2023-05-10T12:23:21.744Z,0.70
2023-05-10T12:25:48.183Z,0.50
2023-05-10T12:28:14.658Z,0.85
2023-05-10T12:30:41.143Z,1.38
2023-05-10T12:33:16.205Z,0.75
2023-05-10T12:35:47.719Z,0.73
2023-05-10T12:38:35.604Z,1.02
2023-05-10T12:41:05.206Z,0.60
2023-05-10T12:43:32.475Z,0.50
2023-05-10T12:45:59.772Z,0.43
2023-05-10T12:48:26.199Z,0.77
2023-05-10T12:50:52.711Z,0.65
2023-05-10T12:53:19.088Z,0.75
2023-05-10T12:55:45.665Z,1.33
2023-05-10T12:58:17.912Z,0.82
2023-05-10T13:00:54.820Z,0.25
2023-05-10T13:03:21.294Z,0.55
2023-05-10T13:05:47.753Z,0.40
2023-05-10T13:08:14.241Z,0.25
2023-05-10T13:10:41.207Z,0.60
2023-05-10T13:13:09.229Z,0.22
2023-05-10T13:15:35.945Z,0.28
2023-05-10T13:18:02.695Z,0.80
2023-05-10T13:20:29.241Z,1.60
2023-05-10T13:22:55.639Z,1.65
2023-05-10T13:25:22.083Z,2.00
2023-05-10T13:27:48.502Z,2.28
2023-05-10T13:30:15.192Z,1.73
2023-05-10T13:32:41.816Z,1.98
2023-05-10T13:35:09.007Z,1.50
2023-05-10T13:37:38.188Z,1.45
2023-05-10T13:40:05.592Z,0.95
2023-05-10T13:42:34.558Z,1.33
2023-05-10T13:45:02.633Z,0.95
2023-05-10T13:47:29.366Z,1.02
2023-05-10T13:49:56.210Z,1.10
2023-05-10T13:52:22.673Z,1.50
2023-05-10T13:54:51.689Z,2.63
2023-05-10T13:57:18.155Z,2.10
2023-05-10T13:59:44.614Z,1.98
2023-05-10T14:02:13.699Z,2.10
2023-05-10T14:04:40.323Z,1.40
2023-05-10T14:07:06.802Z,1.42
2023-05-10T14:09:33.253Z,1.67
2023-05-10T14:11:59.733Z,1.92
2023-05-10T14:14:26.295Z,2.10
2023-05-10T14:16:52.905Z,2.20
2023-05-10T14:19:19.376Z,1.98
2023-05-10T14:21:45.867Z,1.90
2023-05-10T14:24:15.480Z,1.88
2023-05-10T14:26:41.907Z,2.25
2023-05-10T14:29:09.947Z,2.05
2023-05-10T14:31:38.017Z,2.15
2023-05-10T14:34:04.438Z,2.28
2023-05-10T14:36:30.849Z,2.50
2023-05-10T14:38:57.250Z,3.10
2023-05-10T14:41:24.043Z,2.53
2023-05-10T14:43:51.679Z,2.30
2023-05-10T14:46:18.568Z,2.47
2023-05-10T14:48:45.010Z,2.67
2023-05-10T14:51:11.955Z,2.88
2023-05-10T14:53:39.489Z,3.10
2023-05-10T14:56:06.284Z,2.83
2023-05-10T14:58:34.147Z,3.30
2023-05-10T15:01:01.132Z,3.30
2023-05-10T15:03:28.190Z,3.33
2023-05-10T15:05:56.946Z,2.78
2023-05-10T15:08:24.535Z,2.55
2023-05-10T15:10:51.571Z,2.72
2023-05-10T15:13:18.124Z,2.42
2023-05-10T15:15:44.576Z,3.20
2023-05-10T15:18:11.693Z,2.95
2023-05-10T15:20:38.230Z,3.17
2023-05-10T15:23:04.730Z,3.08
2023-05-10T15:25:31.202Z,3.42
2023-05-10T15:27:57.595Z,3.00
2023-05-10T15:30:24.044Z,2.60
2023-05-10T15:32:50.872Z,3.08
2023-05-10T15:35:17.935Z,3.40
2023-05-10T15:37:44.544Z,3.50
2023-05-10T15:40:11.417Z,3.35
2023-05-10T15:42:37.874Z,2.80
2023-05-10T15:45:04.912Z,3.00
2023-05-10T15:47:31.721Z,2.67
2023-05-10T15:50:00.393Z,2.85
2023-05-10T15:52:27.227Z,2.50
2023-05-10T15:54:53.749Z,3.05
2023-05-10T15:57:20.173Z,2.05
2023-05-10T15:59:46.690Z,2.72
2023-05-10T16:02:13.788Z,3.60
2023-05-10T16:04:40.338Z,3.85
2023-05-10T16:07:07.020Z,2.85
2023-05-10T16:09:33.465Z,2.63
2023-05-10T16:11:59.956Z,1.90
2023-05-10T16:14:26.540Z,2.25
2023-05-10T16:16:53.088Z,2.20
2023-05-10T16:19:19.682Z,4.43
2023-05-10T16:21:47.265Z,3.30
2023-05-10T16:24:13.756Z,3.35
2023-05-10T16:26:41.106Z,2.30
2023-05-10T16:29:08.624Z,3.03
2023-05-10T16:31:35.468Z,3.63
2023-05-10T16:34:02.255Z,1.95
2023-05-10T16:36:29.612Z,2.45
2023-05-10T16:38:56.480Z,7.38
2023-05-10T16:41:22.976Z,7.18
2023-05-10T16:43:51.133Z,3.38
2023-05-10T16:46:17.590Z,2.33
2023-05-10T16:48:44.137Z,1.85
2023-05-10T16:51:10.656Z,2.85
2023-05-10T16:53:37.777Z,2.33
2023-05-10T16:56:04.426Z,6.47
2023-05-10T16:58:30.919Z,4.05
2023-05-10T17:00:57.314Z,2.63
2023-05-10T17:03:23.833Z,4.03
2023-05-10T17:05:51.666Z,2.60
2023-05-10T17:08:18.059Z,1.90
2023-05-10T17:10:44.476Z,4.13
2023-05-10T17:13:10.941Z,2.00
2023-05-10T17:15:40.049Z,1.58
2023-05-10T17:18:07.514Z,1.10
2023-05-10T17:20:34.360Z,0.90
2023-05-10T17:23:02.608Z,1.20
2023-05-10T17:25:29.346Z,0.95
2023-05-10T17:27:55.770Z,0.70
2023-05-10T17:30:26.250Z,0.93
2023-05-10T17:32:54.135Z,1.23
2023-05-10T17:35:21.319Z,1.33
2023-05-10T17:37:47.921Z,1.60
2023-05-10T17:40:14.649Z,1.15
2023-05-10T17:42:41.812Z,1.05
2023-05-10T17:45:08.954Z,1.70
2023-05-10T17:47:35.647Z,1.50
2023-05-10T17:50:02.269Z,2.92
2023-05-10T17:52:31.364Z,2.05
2023-05-10T17:54:59.681Z,1.90
2023-05-10T17:57:26.278Z,2.00
2023-05-10T17:59:55.280Z,2.00
2023-05-10T18:02:21.884Z,2.40
2023-05-10T18:04:49.753Z,1.75
2023-05-10T18:07:16.496Z,1.50
2023-05-10T18:09:42.950Z,1.52
2023-05-10T18:12:09.380Z,1.58
2023-05-10T18:14:41.017Z,2.00
2023-05-10T18:17:09.048Z,1.83
2023-05-10T18:19:35.727Z,1.88
2023-05-10T18:22:04.125Z,3.25
2023-05-10T18:27:03.313Z,3.03
2023-05-10T18:29:29.812Z,2.53
2023-05-10T18:31:56.376Z,2.67
2023-05-10T18:34:22.882Z,2.42
2023-05-10T18:36:49.450Z,3.30
2023-05-10T18:39:17.938Z,2.72
2023-05-10T18:41:45.704Z,2.58
2023-05-10T18:44:14.982Z,2.47
2023-05-10T18:46:42.564Z,3.17
2023-05-10T18:49:09.290Z,2.65
2023-05-10T18:51:36.022Z,2.90
2023-05-10T18:54:02.599Z,2.78
2023-05-10T18:56:29.118Z,2.72
2023-05-10T18:58:55.755Z,3.00
2023-05-10T19:01:22.486Z,2.65
2023-05-10T19:03:48.951Z,3.00
2023-05-10T19:06:16.509Z,2.67
2023-05-10T19:08:43.164Z,3.47
2023-05-10T19:11:09.658Z,3.05
2023-05-10T19:13:38.558Z,2.72
2023-05-10T19:16:20.214Z,3.10
2023-05-10T19:18:47.064Z,3.65
2023-05-10T19:21:13.725Z,3.15
2023-05-10T19:23:41.948Z,4.72
2023-05-10T19:26:10.538Z,4.25
2023-05-10T19:28:38.501Z,3.42
2023-05-10T19:31:06.048Z,4.22
2023-05-10T19:33:36.216Z,3.60
2023-05-10T19:36:04.282Z,3.70
2023-05-10T19:38:34.410Z,3.90
2023-05-10T19:43:28.598Z,4.20
2023-05-10T19:46:00.014Z,3.42
2023-05-10T19:48:27.690Z,3.92
2023-05-10T19:50:54.724Z,4.07
2023-05-10T19:53:21.381Z,4.03
2023-05-10T19:55:48.350Z,4.13
2023-05-10T19:58:14.804Z,5.53
2023-05-10T20:00:41.262Z,3.85
2023-05-10T20:03:09.464Z,3.97
2023-05-10T20:05:36.080Z,3.45
2023-05-10T20:08:02.881Z,3.58
2023-05-10T20:10:29.544Z,4.30
2023-05-10T20:12:56.156Z,3.47
2023-05-10T20:15:24.291Z,4.63
2023-05-10T20:17:53.120Z,4.38
2023-05-10T20:20:20.627Z,3.67
2023-05-10T20:22:48.321Z,3.60
2023-05-10T20:25:16.562Z,3.45
2023-05-10T20:27:43.438Z,3.67
2023-05-10T20:30:10.446Z,3.75
2023-05-10T20:32:38.636Z,4.43
2023-05-10T20:35:06.181Z,3.30
2023-05-10T20:37:32.958Z,3.97
2023-05-10T20:40:00.801Z,5.53
2023-05-10T20:42:27.352Z,4.38
2023-05-10T20:44:53.804Z,4.35
2023-05-10T20:47:20.438Z,4.05
2023-05-10T20:49:46.862Z,3.67
2023-05-10T20:52:14.476Z,6.40
2023-05-10T20:54:40.869Z,4.15
2023-05-10T20:57:07.572Z,3.92
2023-05-10T20:59:34.231Z,3.97
2023-05-10T21:02:01.052Z,4.30
2023-05-10T21:04:27.828Z,3.88
2023-05-10T21:06:55.624Z,4.63
2023-05-10T21:09:22.514Z,4.15
2023-05-10T21:11:50.179Z,4.05
2023-05-10T21:14:16.752Z,4.00
2023-05-10T21:16:43.587Z,3.72
2023-05-10T21:19:10.244Z,3.60
2023-05-10T21:21:36.769Z,4.72
2023-05-10T21:24:03.448Z,4.45
2023-05-10T21:26:29.964Z,3.60
2023-05-10T21:28:56.596Z,3.47
2023-05-10T21:31:23.113Z,3.75
2023-05-10T21:33:49.540Z,3.72
2023-05-10T21:36:16.240Z,3.53
2023-05-10T21:38:44.434Z,3.85
2023-05-10T21:41:11.311Z,4.38
2023-05-10T21:43:37.861Z,4.55
2023-05-10T21:46:04.668Z,4.05
2023-05-10T21:48:32.542Z,4.15
2023-05-10T21:50:59.391Z,4.32
2023-05-10T21:53:25.873Z,3.35
2023-05-10T21:55:52.447Z,3.72
2023-05-10T21:58:18.930Z,4.00
2023-05-10T22:00:45.971Z,4.57
2023-05-10T22:03:13.622Z,4.55
2023-05-10T22:05:40.312Z,3.78
2023-05-10T22:08:07.580Z,3.78
2023-05-10T22:10:34.098Z,3.33
2023-05-10T22:13:00.730Z,3.42
2023-05-10T22:15:27.260Z,3.10
2023-05-10T22:17:54.833Z,3.70
2023-05-10T22:20:21.373Z,3.42
2023-05-10T22:22:47.809Z,3.75
2023-05-10T22:25:14.462Z,4.60
2023-05-10T22:27:40.972Z,3.75
2023-05-10T22:30:08.152Z,3.50
2023-05-10T22:32:34.729Z,3.72
2023-05-10T22:35:01.291Z,3.90
2023-05-10T22:37:27.803Z,4.10
2023-05-10T22:39:54.240Z,4.28
2023-05-10T22:42:22.136Z,4.07
2023-05-10T22:44:48.627Z,4.43
2023-05-10T22:47:16.349Z,3.78
2023-05-10T22:49:42.797Z,4.40
2023-05-10T22:52:09.752Z,5.03
2023-05-10T22:54:36.384Z,4.00
2023-05-10T22:57:03.144Z,4.55
2023-05-10T22:59:29.650Z,4.32
2023-05-10T23:01:56.190Z,4.38
2023-05-10T23:04:22.724Z,4.97
2023-05-10T23:06:49.445Z,4.53
2023-05-10T23:09:16.375Z,4.80
2023-05-10T23:11:43.104Z,4.97
2023-05-10T23:14:09.597Z,4.63
2023-05-10T23:16:36.137Z,4.50
2023-05-10T23:19:02.728Z,4.63
2023-05-10T23:21:31.303Z,4.68
2023-05-10T23:23:58.596Z,5.18
2023-05-10T23:26:25.137Z,4.72
2023-05-10T23:28:51.651Z,4.50
2023-05-10T23:31:18.401Z,4.72
2023-05-10T23:33:44.886Z,4.95
2023-05-10T23:36:11.530Z,5.28
2023-05-10T23:38:38.268Z,5.22
2023-05-10T23:41:04.742Z,6.60
2023-05-10T23:43:31.564Z,5.57
2023-05-10T23:45:58.568Z,5.28
2023-05-10T23:48:25.156Z,6.05
2023-05-10T23:50:51.785Z,4.88
2023-05-10T23:53:18.334Z,5.47
2023-05-10T23:55:45.354Z,5.05
2023-05-10T23:58:12.517Z,5.70
